LOWW/VIE METAR and TAF weather

Enter ICAO airport designator
Station Type Date Time Source
LOWW METAR 2020/01/18 12:50 UTC NOAA

LOWW 181250Z 04003KT 3600 -SG BR FEW002 SCT003 BKN004 M01/M02 Q1025 R88/19//95 TEMPO 1000 SN VV005


Station Type Date Time Source
LOWW Decoded METAR 2020/01/18 12:50 UTC NOAA

Wien / Schwechat-Flughafen, Austria (LOWW) 48-07N 016-34E 190M
Jan 18, 2020 - 07:50 AM EST / 2020.01.18 1250 UTC
Wind: from the NE (040 degrees) at 3 MPH (3 KT):0
Visibility: 2 mile(s):0
Sky conditions: mostly cloudy
Weather: light snow grains; mist
Temperature: 30 F (-1 C)
Dew Point: 28 F (-2 C)
Relative Humidity: 92%
Pressure (altimeter): 30.27 in. Hg (1025 hPa)
ob: LOWW 181250Z 04003KT 3600 -SG BR FEW002 SCT003 BKN004 M01/M02 Q1025 R88/19//95 TEMPO 1000 SN VV005
cycle: 13

Station Type Date Time Source
LOWW TAF 2020/01/18 12:20 UTC NOAA

TAF LOWW 181115Z 1812/1918 10004KT 0700 BR BCFG BKN001 TX02/1912Z TNM02/1812Z
BECMG 1812/1814 VRB02KT 2000 -SN SCT001 BKN004
TEMPO 1814/1819 0600 SN VV002
BECMG 1819/1822 31007KT 5000 -SNRA SCT003 BKN009
TEMPO 1821/1916 35015KT 2000 SHSNRA FEW010 BKN015
BECMG 1916/1918 9999 BKN030

Example: see airport list